Time;durP1;ratioP1;P1;durP2;ratioP2;P2;SDS_P1;SDS_P2;PMS_P1;PMS_P2;Temp;Humidity;BMP_temperature;BMP_pressure;BME280_temperature;BME280_humidity;BME280_pressure;Samples;Min_cycle;Max_cycle;Signal;HPM_P1;HPM_P2
2021/06/29 00:00:43;;;;;;;7.07;6.45;;;23.00;65.90;;;23.07;49.40;94627.00;5034962;28;20227;-87
2021/06/29 00:03:10;;;;;;;7.10;6.43;;;22.90;65.80;;;23.06;49.68;94624.56;4964684;28;20220;-88
2021/06/29 00:05:38;;;;;;;6.57;5.88;;;22.90;65.80;;;23.05;49.88;94623.78;4899019;29;20260;-88
2021/06/29 00:08:07;;;;;;;6.43;5.80;;;22.90;65.90;;;23.02;50.00;94618.97;4862547;29;20258;-87
2021/06/29 00:10:47;;;;;;;6.65;5.97;;;22.90;65.70;;;22.98;50.23;94623.28;5129031;27;20307;-88
2021/06/29 00:13:15;;;;;;;6.70;6.00;;;22.90;66.20;;;22.95;49.92;94623.84;5082404;28;20215;-88
2021/06/29 00:15:41;;;;;;;6.45;5.82;;;22.80;66.00;;;22.95;50.08;94631.84;5054607;28;20258;-87
2021/06/29 00:18:08;;;;;;;6.88;5.97;;;22.80;65.80;;;22.91;49.80;94618.28;5036191;28;20212;-87
2021/06/29 00:20:35;;;;;;;6.07;5.47;;;22.80;66.10;;;22.89;50.01;94619.59;4993902;28;20305;-86
2021/06/29 00:23:03;;;;;;;6.68;6.00;;;22.80;66.30;;;22.88;50.36;94615.34;4953807;28;20225;-88
2021/06/29 00:25:30;;;;;;;7.05;6.45;;;22.70;66.10;;;22.84;49.79;94615.09;4875010;29;20226;-87
2021/06/29 00:27:57;;;;;;;6.28;5.68;;;22.70;66.00;;;22.84;49.74;94625.81;4802272;29;20235;-87
2021/06/29 00:30:30;;;;;;;7.10;6.38;;;22.70;66.00;;;22.81;50.17;94623.66;5127148;27;20321;-87
2021/06/29 00:32:57;;;;;;;6.32;5.70;;;22.70;66.30;;;22.79;50.43;94621.28;5090437;28;20214;-87
2021/06/29 00:35:24;;;;;;;5.95;5.40;;;22.70;66.20;;;22.77;49.94;94623.41;5095492;28;20328;-87
2021/06/29 00:37:50;;;;;;;8.05;6.32;;;22.60;66.10;;;22.75;50.00;94619.41;5080076;28;20207;-88
2021/06/29 00:40:17;;;;;;;6.22;5.63;;;22.60;66.20;;;22.71;50.11;94613.81;4963009;28;20261;-88
2021/06/29 00:42:44;;;;;;;6.88;6.18;;;22.60;66.30;;;22.69;50.45;94608.75;4887610;29;20217;-88
2021/06/29 00:45:12;;;;;;;7.20;6.25;;;22.60;66.30;;;22.68;50.32;94603.69;4842790;29;20242;-87
2021/06/29 00:47:38;;;;;;;6.68;6.07;;;22.60;66.40;;;22.67;49.90;94600.22;4764758;29;20281;-88
2021/06/29 00:51:27;;;;;;;6.07;5.50;;;22.60;66.20;;;22.62;50.02;94594.09;5150293;27;20656;-89
2021/06/29 00:53:53;;;;;;;6.50;5.90;;;22.50;66.20;;;22.61;50.39;94601.31;5085250;28;20221;-88
2021/06/29 00:56:20;;;;;;;6.65;5.97;;;22.50;66.20;;;22.60;49.83;94594.38;5085559;28;20426;-88
2021/06/29 00:58:48;;;;;;;6.57;5.82;;;22.40;66.10;;;22.57;50.43;94588.78;5062010;28;20223;-86
2021/06/29 01:01:15;;;;;;;6.40;5.80;;;22.50;66.40;;;22.53;50.27;94584.00;4971865;28;20793;-88
2021/06/29 01:03:43;;;;;;;7.07;6.38;;;22.40;66.30;;;22.53;50.41;94591.19;4875077;29;20652;-87
2021/06/29 01:06:13;;;;;;;6.13;5.57;;;22.40;66.40;;;22.52;50.41;94598.44;4869601;29;20219;-87
2021/06/29 01:08:40;;;;;;;6.53;5.93;;;22.40;66.50;;;22.48;50.33;94589.34;4677530;29;22007;-88
2021/06/29 01:13:08;;;;;;;6.75;6.13;;;22.40;66.40;;;22.44;49.68;94596.31;5151471;27;21126;-87
2021/06/29 01:15:35;;;;;;;6.10;5.60;;;22.40;66.20;;;22.42;50.03;94606.47;5112940;27;20328;-88
2021/06/29 01:18:03;;;;;;;5.90;5.40;;;22.30;66.20;;;22.40;50.13;94600.63;5098714;28;20611;-87
2021/06/29 01:20:31;;;;;;;7.05;5.53;;;22.30;66.40;;;22.38;50.17;94602.75;5055365;27;20222;-87
2021/06/29 01:23:04;;;;;;;6.30;5.70;;;22.20;66.30;;;22.32;50.34;94606.50;5019847;28;20216;-85
2021/06/29 01:25:32;;;;;;;6.20;5.60;;;22.20;66.40;;;22.28;50.31;94600.91;4966436;28;20701;-87
2021/06/29 01:35:28;;;;;;;6.93;6.10;;;22.20;66.60;;;22.22;50.91;94604.66;5133237;27;20652;-89
2021/06/29 01:37:54;;;;;;;7.97;6.50;;;22.10;66.70;;;22.19;50.84;94600.69;5070136;28;20667;-88
2021/06/29 01:40:26;;;;;;;6.20;5.70;;;22.10;66.80;;;22.17;50.60;94588.66;5098281;28;20254;-88
2021/06/29 01:42:57;;;;;;;7.50;6.25;;;22.10;66.80;;;22.18;50.85;94593.72;5063239;28;20250;-87
2021/06/29 01:45:27;;;;;;;8.73;6.00;;;22.10;66.90;;;22.16;50.71;94589.72;4986195;28;20229;-88
2021/06/29 01:47:56;;;;;;;7.03;6.18;;;22.00;66.80;;;22.14;50.83;94583.84;4900324;29;20636;-88
2021/06/29 01:50:23;;;;;;;6.07;5.57;;;22.00;66.90;;;22.13;51.28;94593.75;4811765;29;20231;-88
2021/06/29 01:52:55;;;;;;;6.20;5.60;;;22.00;66.90;;;22.10;51.43;94586.28;4648481;30;20250;-87
2021/06/29 01:55:33;;;;;;;5.43;4.93;;;22.00;67.30;;;22.07;50.66;94584.16;5131288;27;20399;-88
2021/06/29 01:58:00;;;;;;;8.60;5.88;;;22.00;66.90;;;22.06;51.05;94587.91;5092481;28;20218;-88
2021/06/29 02:00:26;;;;;;;6.53;5.93;;;21.90;66.90;;;22.04;50.82;94576.69;5088428;28;20320;-87
2021/06/29 02:02:53;;;;;;;6.20;5.65;;;22.00;67.10;;;22.02;50.74;94576.97;5066899;28;20221;-86
2021/06/29 02:05:20;;;;;;;5.75;5.25;;;21.90;66.90;;;22.02;50.84;94570.81;5038100;28;20779;-88
2021/06/29 02:07:47;;;;;;;6.75;6.07;;;21.90;67.10;;;22.02;51.22;94573.47;4974523;28;20205;-88
2021/06/29 02:10:15;;;;;;;7.93;5.45;;;21.90;67.00;;;22.01;50.80;94566.56;4912209;29;20323;-87
2021/06/29 02:12:44;;;;;;;6.45;5.85;;;21.90;67.10;;;22.00;51.40;94562.28;4840106;29;20206;-86
2021/06/29 02:17:00;;;;;;;6.45;5.85;;;21.90;67.20;;;21.95;51.26;94563.09;5151536;27;20643;-88
2021/06/29 02:19:27;;;;;;;6.10;5.60;;;21.90;67.00;;;21.94;51.30;94558.81;5113151;27;20246;-88
2021/06/29 02:21:54;;;;;;;6.00;5.47;;;21.80;66.90;;;21.91;51.15;94559.38;5085153;28;20351;-87
2021/06/29 02:24:20;;;;;;;6.15;5.60;;;21.80;67.20;;;21.86;51.21;94562.03;5106918;28;20224;-86
2021/06/29 02:26:47;;;;;;;6.25;5.63;;;21.80;67.10;;;21.86;51.13;94562.03;5077626;28;20684;-87
2021/06/29 02:29:13;;;;;;;6.07;5.47;;;21.70;67.10;;;21.83;51.40;94566.06;5016504;28;20233;-87
2021/06/29 02:31:40;;;;;;;10.15;5.88;;;21.70;67.10;;;21.76;51.05;94554.88;4934812;28;20223;-86
2021/06/29 02:34:07;;;;;;;6.93;6.20;;;21.70;67.20;;;21.75;51.33;94553.25;4804743;29;20240;-88
2021/06/29 02:37:57;;;;;;;6.15;5.55;;;21.70;67.20;;;21.67;51.23;94551.16;5149183;27;20621;-86
2021/06/29 02:40:24;;;;;;;6.88;5.47;;;21.60;67.20;;;21.65;51.42;94553.28;5105943;28;20259;-88
2021/06/29 02:42:50;;;;;;;6.13;5.57;;;21.60;67.20;;;21.67;51.27;94559.97;5116135;27;21025;-86
2021/06/29 02:45:19;;;;;;;6.07;5.47;;;21.60;67.50;;;21.66;51.79;94554.91;5090382;28;20249;-87
2021/06/29 02:47:47;;;;;;;5.88;5.22;;;21.60;67.50;;;21.69;51.52;94573.84;5055612;28;20294;-87
2021/06/29 02:50:15;;;;;;;6.32;5.82;;;21.60;67.60;;;21.72;51.73;94578.63;5031493;28;20290;-87
2021/06/29 02:52:41;;;;;;;6.25;5.70;;;21.50;67.60;;;21.74;51.39;94579.16;4915398;29;20333;-87
2021/06/29 02:55:11;;;;;;;6.50;5.63;;;21.60;67.90;;;21.79;51.87;94604.25;4823721;29;20241;-87
2021/06/29 02:59:24;;;;;;;7.35;6.65;;;21.60;67.80;;;21.75;53.08;94690.22;5129763;27;20665;-88
2021/06/29 03:01:51;;;;;;;7.20;6.30;;;21.60;68.10;;;21.75;52.63;94687.56;5081971;28;20209;-88
2021/06/29 03:04:18;;;;;;;7.47;6.78;;;21.70;68.30;;;21.75;52.92;94660.84;5072500;28;20672;-88
2021/06/29 03:06:45;;;;;;;6.32;5.72;;;21.60;68.20;;;21.81;52.83;94652.84;5072308;28;20209;-86
2021/06/29 03:09:13;;;;;;;6.50;5.90;;;21.60;68.10;;;21.84;52.17;94658.44;5041364;28;20307;-85
2021/06/29 03:11:40;;;;;;;6.57;5.97;;;21.60;68.10;;;21.86;52.14;94652.81;4989302;28;20215;-88
2021/06/29 03:14:07;;;;;;;6.20;5.63;;;21.60;68.10;;;21.89;52.42;94645.06;4857932;29;20234;-86
2021/06/29 03:16:34;;;;;;;6.88;5.43;;;21.60;68.20;;;21.90;52.06;94662.69;4668298;30;20686;-87
2021/06/29 03:20:36;;;;;;;6.82;5.88;;;21.70;68.10;;;21.93;52.07;94658.69;5111965;27;20576;-87
2021/06/29 03:23:03;;;;;;;5.55;5.05;;;21.80;68.10;;;21.96;52.13;94652.00;5065732;28;20203;-87
2021/06/29 03:25:30;;;;;;;6.03;5.43;;;21.70;68.10;;;21.98;52.02;94656.00;5085470;28;20228;-87
2021/06/29 03:27:56;;;;;;;7.40;6.07;;;21.70;68.10;;;22.02;52.03;94661.59;5077079;28;20208;-86
2021/06/29 03:30:23;;;;;;;6.18;5.65;;;21.70;68.10;;;22.03;52.31;94650.66;5034397;28;20333;-87
2021/06/29 03:32:49;;;;;;;6.40;5.78;;;21.80;68.20;;;22.04;52.13;94644.22;4869464;29;20216;-87
2021/06/29 03:35:16;;;;;;;6.85;5.95;;;21.80;68.20;;;22.04;52.07;94638.88;4823268;29;20832;-86
2021/06/29 03:37:43;;;;;;;6.90;6.18;;;21.80;68.20;;;22.06;51.96;94650.13;4726802;29;20219;-87
2021/06/29 03:42:01;;;;;;;6.72;6.03;;;21.80;68.20;;;22.00;51.88;94651.19;5151582;27;20633;-87
2021/06/29 03:44:28;;;;;;;6.78;6.15;;;21.80;68.20;;;22.01;51.97;94647.47;5095734;28;20276;-86
2021/06/29 03:46:55;;;;;;;6.65;6.05;;;21.80;68.30;;;22.02;52.46;94653.59;5068170;28;20223;-87
2021/06/29 03:49:22;;;;;;;6.60;6.00;;;21.80;68.30;;;22.01;52.74;94657.34;5032461;28;20253;-88
2021/06/29 03:51:50;;;;;;;6.90;6.22;;;21.80;68.40;;;22.00;51.96;94650.41;5037670;28;20212;-88
2021/06/29 03:54:17;;;;;;;6.75;6.15;;;21.80;68.50;;;21.98;52.47;94647.19;4972439;28;20257;-87
2021/06/29 03:56:44;;;;;;;7.28;6.15;;;21.80;68.50;;;21.99;52.39;94646.13;4935299;28;20263;-87
2021/06/29 03:59:10;;;;;;;6.43;5.82;;;21.80;68.70;;;22.02;52.48;94659.75;4839060;29;20259;-87
2021/06/29 04:01:48;;;;;;;6.63;6.03;;;21.80;68.80;;;22.03;52.77;94664.03;5151167;27;20382;-88
2021/06/29 04:04:14;;;;;;;6.43;5.82;;;21.90;68.80;;;22.03;52.50;94653.34;5105373;28;20320;-87
2021/06/29 04:06:41;;;;;;;7.10;6.40;;;21.80;68.80;;;22.06;52.87;94657.34;5102914;28;20247;-88
2021/06/29 04:09:08;;;;;;;6.35;5.82;;;21.80;68.90;;;22.07;52.81;94670.41;5086594;28;20232;-86
2021/06/29 04:11:35;;;;;;;6.90;6.30;;;21.80;69.00;;;22.09;52.92;94670.13;5050156;28;20211;-88
2021/06/29 04:14:03;;;;;;;7.28;6.53;;;21.80;69.10;;;22.13;52.64;94668.53;5036967;28;20325;-86
2021/06/29 04:16:30;;;;;;;7.07;6.47;;;21.90;69.30;;;22.15;52.74;94668.25;5006496;28;20197;-87
2021/06/29 04:18:56;;;;;;;12.40;7.18;;;21.90;69.30;;;22.17;53.20;94660.78;4927290;28;20253;-87
2021/06/29 04:21:34;;;;;;;7.25;6.55;;;21.90;69.50;;;22.20;53.38;94669.06;5149720;27;20387;-87
2021/06/29 04:24:05;;;;;;;7.10;6.43;;;21.90;69.60;;;22.21;53.16;94664.50;5096033;28;20640;-87
2021/06/29 04:26:34;;;;;;;6.80;6.20;;;21.90;69.70;;;22.24;53.50;94653.28;5092316;28;20193;-87
2021/06/29 04:29:00;;;;;;;7.13;6.10;;;22.00;69.80;;;22.28;53.39;94658.91;5097463;28;20568;-87
2021/06/29 04:31:27;;;;;;;6.90;6.20;;;22.00;69.80;;;22.26;54.02;94648.44;5042589;28;20212;-87
2021/06/29 04:33:55;;;;;;;7.32;6.50;;;22.10;70.00;;;22.29;53.60;94655.13;4950679;28;20270;-87
2021/06/29 04:36:21;;;;;;;7.25;6.50;;;22.00;70.00;;;22.31;53.65;94653.00;4859147;29;20827;-87
2021/06/29 04:38:49;;;;;;;7.38;6.68;;;22.00;70.00;;;22.32;53.60;94652.72;4557027;30;20232;-84
2021/06/29 04:41:26;;;;;;;7.40;6.70;;;22.00;70.10;;;22.34;53.65;94647.91;5146425;27;20310;-84
2021/06/29 04:43:53;;;;;;;6.80;6.20;;;22.10;70.10;;;22.33;53.96;94651.63;5088375;28;20225;-83
2021/06/29 04:46:19;;;;;;;8.15;6.45;;;22.10;70.10;;;22.33;53.76;94646.28;5070808;28;20203;-84
2021/06/29 04:48:46;;;;;;;7.53;6.82;;;22.10;70.20;;;22.32;53.49;94643.91;5086267;28;20221;-83
2021/06/29 04:51:12;;;;;;;7.55;6.85;;;22.10;70.20;;;22.31;53.57;94642.31;5015247;28;20215;-84
2021/06/29 04:53:39;;;;;;;7.25;6.55;;;22.10;70.30;;;22.30;54.19;94646.03;4916293;29;20699;-85
2021/06/29 04:56:23;;;;;;;7.57;6.88;;;22.00;70.20;;;22.29;54.12;94641.75;4883706;29;20228;-84
2021/06/29 04:58:54;;;;;;;7.00;6.13;;;22.00;70.10;;;22.27;54.15;94641.25;4749772;29;20271;-83
2021/06/29 05:03:22;;;;;;;7.30;6.70;;;22.10;70.20;;;22.21;54.00;94635.91;5150611;27;20622;-84
2021/06/29 05:05:49;;;;;;;6.93;6.18;;;22.00;70.00;;;22.25;54.25;94643.41;5108668;28;20208;-84
2021/06/29 05:08:15;;;;;;;6.95;6.35;;;22.00;70.10;;;22.27;54.38;94634.03;5082848;28;20234;-83
2021/06/29 05:10:42;;;;;;;7.13;6.43;;;22.10;70.20;;;22.34;54.05;94641.78;5066850;28;20794;-84
2021/06/29 05:13:08;;;;;;;6.78;6.18;;;22.10;70.30;;;22.41;53.72;94638.81;5015512;28;20213;-84
2021/06/29 05:15:35;;;;;;;6.90;6.15;;;22.10;70.40;;;22.49;53.78;94651.63;4990951;28;20330;-83
2021/06/29 05:18:02;;;;;;;6.55;6.00;;;22.10;70.40;;;22.56;54.00;94649.47;4949253;28;20236;-83
2021/06/29 05:20:29;;;;;;;6.45;5.85;;;22.20;70.50;;;22.63;53.80;94657.16;4804472;29;20639;-83
2021/06/29 05:25:28;;;;;;;7.07;6.47;;;22.20;70.40;;;22.83;53.89;94656.28;5132721;27;20399;-84
2021/06/29 05:27:55;;;;;;;6.82;6.22;;;22.30;70.60;;;22.89;53.83;94644.47;5103465;28;20202;-84
2021/06/29 05:30:21;;;;;;;6.60;6.00;;;22.40;70.50;;;23.00;54.00;94659.38;5044687;28;20695;-83
2021/06/29 05:32:48;;;;;;;6.90;6.20;;;22.50;70.90;;;23.12;53.69;94651.03;5018850;28;20256;-84
2021/06/29 05:35:14;;;;;;;6.97;6.28;;;22.60;70.90;;;23.21;53.49;94661.19;4963083;28;20313;-83
2021/06/29 05:37:41;;;;;;;7.20;6.50;;;22.70;70.70;;;23.28;53.26;94659.78;4953044;28;20301;-83
2021/06/29 05:40:08;;;;;;;7.88;6.20;;;22.70;70.70;;;23.34;53.60;94668.59;4878663;29;20230;-84
2021/06/29 05:42:35;;;;;;;7.15;6.55;;;22.80;70.50;;;23.39;53.82;94665.03;4757035;29;20221;-83
2021/06/29 05:47:39;;;;;;;6.97;6.38;;;22.90;70.70;;;23.54;53.76;94664.16;5150853;27;20637;-84
2021/06/29 05:50:10;;;;;;;7.03;5.85;;;23.00;70.70;;;23.62;53.63;94667.03;5112321;27;20247;-83
2021/06/29 05:52:37;;;;;;;6.10;5.60;;;23.10;70.70;;;23.70;53.89;94667.50;5109032;28;20208;-83
2021/06/29 05:55:05;;;;;;;6.32;5.75;;;23.20;70.70;;;23.78;53.64;94670.38;5055072;28;20229;-84
2021/06/29 05:57:32;;;;;;;6.88;6.28;;;23.20;70.90;;;23.90;53.65;94670.00;5043101;28;20210;-84
2021/06/29 05:59:58;;;;;;;6.15;5.63;;;23.30;70.90;;;23.98;53.31;94664.03;5059490;28;20386;-83
2021/06/29 06:02:25;;;;;;;7.65;6.47;;;23.40;70.80;;;24.10;53.09;94668.22;5011727;28;20212;-83
2021/06/29 06:04:52;;;;;;;6.97;5.72;;;23.50;70.60;;;24.20;52.86;94664.66;4829856;29;20225;-83
2021/06/29 06:09:06;;;;;;;6.32;5.45;;;23.60;70.70;;;24.35;53.21;94677.09;5136864;27;20645;-84
2021/06/29 06:11:32;;;;;;;5.57;5.07;;;23.70;70.60;;;24.48;53.23;94684.44;5108756;27;20196;-84
2021/06/29 06:13:59;;;;;;;6.32;5.72;;;23.80;70.60;;;24.57;52.93;94673.88;5110425;28;20312;-83
2021/06/29 06:16:25;;;;;;;5.65;4.88;;;23.90;70.70;;;24.69;52.79;94674.28;5091240;28;20190;-84
2021/06/29 06:18:52;;;;;;;6.40;5.80;;;24.00;70.50;;;24.80;52.94;94679.53;5045643;28;20300;-84
2021/06/29 06:21:18;;;;;;;6.07;5.32;;;24.10;70.20;;;24.89;52.50;94675.94;4986875;28;20197;-85
2021/06/29 06:23:45;;;;;;;7.75;5.32;;;24.20;70.10;;;24.99;51.87;94679.56;4966578;28;20240;-83
2021/06/29 06:26:11;;;;;;;6.00;5.50;;;24.30;70.00;;;25.07;51.93;94679.72;4904358;28;20252;-84
2021/06/29 06:30:47;;;;;;;6.10;5.55;;;24.40;70.10;;;25.20;51.81;94678.19;5151047;27;20884;-85
2021/06/29 06:33:14;;;;;;;6.90;6.10;;;24.50;69.70;;;25.33;51.90;94682.03;5109888;27;20219;-85
2021/06/29 06:35:54;;;;;;;6.22;5.38;;;24.60;69.80;;;25.43;51.83;94673.06;5072215;28;20244;-85
2021/06/29 06:38:20;;;;;;;6.35;5.75;;;24.70;69.40;;;25.52;51.67;94670.50;5092092;28;20229;-84
2021/06/29 06:40:47;;;;;;;7.80;5.78;;;24.80;69.40;;;25.61;51.59;94673.31;5034699;28;20213;-84
2021/06/29 06:43:13;;;;;;;6.30;5.70;;;24.90;69.10;;;25.69;51.16;94676.13;4983318;28;20218;-84
2021/06/29 06:45:39;;;;;;;6.05;5.55;;;25.00;69.10;;;25.82;50.98;94679.97;4674693;29;20250;-84
2021/06/29 06:48:08;;;;;;;5.85;5.35;;;25.10;69.00;;;25.89;50.44;94683.06;4498932;31;20220;-85
2021/06/29 06:52:59;;;;;;;6.20;5.57;;;25.10;68.50;;;26.08;50.23;94678.75;5151027;27;20638;-84
2021/06/29 06:55:26;;;;;;;6.25;5.45;;;25.30;68.20;;;26.16;50.27;94678.09;5107215;28;20216;-85
2021/06/29 06:57:54;;;;;;;6.45;5.85;;;25.40;67.80;;;26.24;50.08;94676.59;5088246;28;20217;-84
2021/06/29 07:00:23;;;;;;;7.35;5.78;;;25.50;67.70;;;26.28;49.88;94680.28;5078530;28;20592;-84
2021/06/29 07:02:50;;;;;;;6.40;5.80;;;25.60;67.70;;;26.39;49.52;94683.56;5008024;28;20197;-85
2021/06/29 07:05:17;;;;;;;6.38;5.78;;;25.70;67.80;;;26.45;49.10;94679.69;4945999;28;20237;-84
2021/06/29 07:07:43;;;;;;;6.18;5.68;;;25.70;67.80;;;26.54;49.28;94680.59;4799839;29;20429;-85
2021/06/29 07:10:11;;;;;;;6.18;5.68;;;25.80;67.70;;;26.63;49.17;94670.72;4652593;30;20267;-85
2021/06/29 07:14:40;;;;;;;6.78;6.18;;;25.90;67.30;;;26.82;48.99;94683.31;5137227;27;20644;-85
2021/06/29 07:17:07;;;;;;;6.93;6.28;;;26.00;68.00;;;26.98;49.04;94684.56;5108867;28;20199;-85
2021/06/29 07:19:33;;;;;;;6.85;6.15;;;26.10;67.30;;;27.15;48.82;94680.44;5146728;27;20215;-85
2021/06/29 07:22:00;;;;;;;6.28;5.78;;;26.30;67.20;;;27.29;48.02;94680.41;5086863;28;20673;-84
2021/06/29 07:24:26;;;;;;;7.55;6.38;;;26.40;67.10;;;27.50;48.40;94671.88;5052824;28;20227;-84
2021/06/29 07:26:53;;;;;;;6.72;6.15;;;26.50;66.90;;;27.70;48.18;94673.31;4997917;28;20662;-84
2021/06/29 07:29:19;;;;;;;6.45;5.93;;;26.60;66.70;;;27.89;47.68;94670.41;4914594;28;20275;-84
2021/06/29 07:31:46;;;;;;;7.13;6.18;;;26.80;66.50;;;28.11;47.10;94678.50;4762263;29;20234;-84
2021/06/29 07:36:45;;;;;;;6.43;5.93;;;27.00;66.00;;;28.54;46.96;94676.28;5150760;27;20367;-84
2021/06/29 07:39:12;;;;;;;6.05;5.55;;;27.40;66.10;;;28.74;46.82;94678.44;5096719;28;20229;-84
2021/06/29 07:41:39;;;;;;;6.43;5.93;;;27.60;65.70;;;28.88;45.91;94675.63;5093101;28;20209;-83
2021/06/29 07:44:05;;;;;;;7.60;5.97;;;27.70;65.10;;;29.02;46.18;94669.31;5103207;28;20238;-84
2021/06/29 07:46:32;;;;;;;6.88;6.15;;;27.90;65.00;;;29.14;45.26;94671.38;5082532;28;20592;-84
2021/06/29 07:48:59;;;;;;;6.28;5.70;;;28.00;64.40;;;29.23;45.60;94664.88;5003815;28;20735;-84
2021/06/29 07:51:25;;;;;;;6.72;6.13;;;28.20;64.30;;;29.33;45.18;94671.09;4937848;28;20216;-84
2021/06/29 07:53:52;;;;;;;6.28;5.47;;;28.30;64.40;;;29.43;44.92;94668.09;4749336;29;20277;-84
2021/06/29 07:58:45;;;;;;;6.07;5.57;;;28.40;64.30;;;29.53;45.08;94664.28;5147161;27;20639;-84
2021/06/29 08:01:14;;;;;;;6.70;6.10;;;28.60;63.60;;;29.54;44.78;94657.72;5087606;28;20216;-83
2021/06/29 08:03:41;;;;;;;5.90;5.40;;;28.60;63.80;;;29.49;44.62;94653.31;5067215;28;20284;-84
2021/06/29 08:06:08;;;;;;;5.82;5.28;;;28.70;63.80;;;29.39;44.69;94664.41;5050153;28;20212;-84
2021/06/29 08:08:36;;;;;;;6.15;5.30;;;28.70;63.70;;;29.21;44.76;94669.00;5031870;28;20265;-84
2021/06/29 08:11:06;;;;;;;6.03;5.53;;;28.70;63.50;;;28.98;45.52;94662.94;5015556;28;20219;-84
2021/06/29 08:13:34;;;;;;;5.00;4.60;;;28.60;63.40;;;28.79;45.39;94666.72;4923837;28;20306;-84
2021/06/29 08:16:02;;;;;;;5.65;5.15;;;28.50;63.40;;;28.65;45.66;94668.69;4719288;29;20213;-84
2021/06/29 08:20:08;;;;;;;5.95;5.22;;;28.40;63.50;;;28.72;45.61;94667.19;5134655;27;20579;-84
2021/06/29 08:22:35;;;;;;;5.78;5.28;;;28.20;63.90;;;28.90;45.56;94670.69;5108386;28;20230;-83
2021/06/29 08:25:05;;;;;;;5.45;4.95;;;28.30;64.20;;;29.08;45.29;94665.34;5114601;28;20240;-85
2021/06/29 08:27:31;;;;;;;5.20;4.70;;;28.30;64.10;;;29.27;45.45;94672.34;5068093;28;20252;-84
2021/06/29 08:29:58;;;;;;;6.40;5.80;;;28.40;64.30;;;29.39;45.01;94667.13;5028496;28;20238;-84
2021/06/29 08:32:25;;;;;;;5.55;4.88;;;28.50;63.70;;;29.50;44.99;94656.78;4956659;28;20209;-84
2021/06/29 08:34:54;;;;;;;5.47;5.07;;;28.60;63.60;;;29.60;44.37;94670.00;4761621;29;20245;-85
2021/06/29 08:37:21;;;;;;;5.22;4.82;;;28.70;63.70;;;29.62;44.01;94666.97;4634815;30;20228;-84
2021/06/29 08:42:04;;;;;;;4.78;4.38;;;28.80;63.40;;;29.62;45.20;94672.38;5133933;27;20572;-85
2021/06/29 08:44:34;;;;;;;5.20;4.80;;;28.90;63.60;;;29.62;45.41;94665.03;5092268;28;20225;-84
2021/06/29 08:47:01;;;;;;;5.18;4.78;;;29.00;63.60;;;29.63;44.92;94673.97;5080439;28;20217;-84
2021/06/29 08:49:27;;;;;;;5.57;5.07;;;29.00;63.30;;;29.58;44.02;94677.63;5014017;28;20234;-84
2021/06/29 08:51:57;;;;;;;6.03;5.50;;;29.00;62.50;;;29.54;44.25;94663.13;4988512;28;20206;-83
2021/06/29 08:54:24;;;;;;;5.57;5.07;;;29.00;62.60;;;29.57;44.04;94672.53;4890754;29;20230;-84
2021/06/29 08:56:51;;;;;;;6.65;5.55;;;29.00;62.70;;;29.56;43.81;94660.91;4880045;29;20722;-83
2021/06/29 08:59:17;;;;;;;5.47;4.97;;;29.00;62.50;;;29.64;44.16;94664.75;4718545;29;20789;-84
2021/06/29 09:04:15;;;;;;;5.88;5.38;;;29.00;62.70;;;29.73;43.92;94670.13;5141877;27;21018;-84
2021/06/29 09:06:43;;;;;;;6.20;5.60;;;29.10;62.50;;;29.77;43.76;94661.06;5090271;28;20724;-84
2021/06/29 09:09:28;;;;;;;5.72;5.22;;;29.10;62.20;;;29.80;43.69;94663.13;5126738;27;20236;-83
2021/06/29 09:11:56;;;;;;;5.90;5.40;;;29.20;62.50;;;29.84;43.59;94658.66;5070636;28;20695;-84
2021/06/29 09:14:31;;;;;;;5.90;5.40;;;29.20;62.50;;;29.88;43.55;94658.81;5023757;28;20219;-85
2021/06/29 09:17:20;;;;;;;5.45;4.95;;;29.30;62.20;;;29.82;42.95;94654.69;4895208;28;20272;-84
2021/06/29 09:19:47;;;;;;;5.55;5.15;;;29.30;62.50;;;29.86;43.74;94664.53;4814140;29;20261;-84
2021/06/29 09:22:41;;;;;;;6.60;5.60;;;29.30;62.30;;;30.00;43.00;94653.56;5138526;27;20636;-85
2021/06/29 09:25:29;;;;;;;6.25;5.65;;;29.30;62.10;;;30.09;43.13;94647.31;5127685;27;20666;-85
2021/06/29 09:27:59;;;;;;;5.88;5.30;;;29.40;62.00;;;30.22;43.45;94649.03;5073923;28;20202;-85
2021/06/29 09:30:42;;;;;;;5.63;5.13;;;29.50;62.00;;;30.37;42.26;94641.50;5047400;28;20225;-84
2021/06/29 09:33:14;;;;;;;5.22;4.82;;;29.60;61.20;;;30.52;42.85;94640.19;5002178;28;20216;-84
2021/06/29 09:35:45;;;;;;;5.63;5.13;;;29.70;61.40;;;30.71;42.14;94637.84;4859450;29;20369;-84
2021/06/29 09:38:20;;;;;;;7.15;5.45;;;29.80;61.30;;;30.87;41.93;94637.28;4726259;30;20212;-83
2021/06/29 09:40:57;;;;;;;5.78;5.28;;;29.90;61.30;;;31.02;42.09;94636.72;4578898;30;20733;-85
2021/06/29 09:43:43;;;;;;;5.07;4.68;;;30.00;61.20;;;31.15;42.41;94645.72;5137702;27;20308;-84
2021/06/29 09:46:16;;;;;;;5.30;4.80;;;30.20;61.20;;;31.27;42.21;94645.81;5101269;28;20256;-84
2021/06/29 09:48:51;;;;;;;5.65;5.13;;;30.30;61.60;;;31.41;41.39;94644.75;5054744;28;20221;-84
2021/06/29 09:51:39;;;;;;;5.03;4.57;;;30.40;61.00;;;31.41;41.34;94642.81;4980011;28;20220;-84
2021/06/29 09:54:09;;;;;;;8.25;5.10;;;30.50;60.40;;;31.36;39.76;94650.34;4967691;28;20243;-85
2021/06/29 09:56:41;;;;;;;5.63;5.13;;;30.50;59.50;;;31.13;39.66;94656.88;4915561;28;20674;-84
2021/06/29 09:59:20;;;;;;;5.05;4.65;;;30.50;59.00;;;30.85;40.18;94659.28;4861123;29;20696;-85
2021/06/29 10:01:48;;;;;;;5.30;4.80;;;30.50;59.40;;;30.72;41.18;94658.38;4514644;30;20244;-84
2021/06/29 10:04:21;;;;;;;12.05;6.13;;;30.40;59.30;;;30.59;41.51;94662.13;5142126;27;20394;-85
2021/06/29 10:06:48;;;;;;;4.60;4.20;;;30.30;59.70;;;30.51;41.11;94658.34;5088521;28;20241;-85
2021/06/29 10:09:17;;;;;;;5.00;4.60;;;30.20;59.40;;;30.48;42.02;94656.25;5072113;28;21169;-85
2021/06/29 10:11:54;;;;;;;4.70;4.30;;;30.10;60.20;;;30.51;41.24;94655.63;5051549;28;20206;-86
2021/06/29 10:14:21;;;;;;;5.65;5.15;;;30.10;60.20;;;30.61;41.56;94651.78;4985386;28;20266;-84
2021/06/29 10:16:52;;;;;;;5.88;5.38;;;30.10;60.30;;;30.72;41.22;94647.56;4971077;28;20213;-85
2021/06/29 10:22:01;;;;;;;6.05;5.55;;;30.10;60.20;;;30.88;41.23;94639.66;4784154;29;20216;-84
2021/06/29 10:24:37;;;;;;;5.65;5.25;;;30.10;60.20;;;30.97;40.77;94632.28;5140224;27;20389;-86
2021/06/29 10:27:09;;;;;;;5.28;4.78;;;30.30;61.00;;;31.00;40.74;94628.13;5088486;28;20314;-85
2021/06/29 10:29:36;;;;;;;5.85;5.43;;;30.30;60.10;;;31.00;41.07;94628.13;5102531;28;20234;-86
2021/06/29 10:32:09;;;;;;;5.95;5.45;;;30.30;59.50;;;30.93;40.14;94628.66;5038793;28;20197;-85
2021/06/29 10:34:38;;;;;;;6.07;5.57;;;30.30;59.20;;;30.85;40.35;94612.44;4987000;28;20273;-85
2021/06/29 10:37:06;;;;;;;5.22;4.72;;;30.30;59.20;;;30.84;40.49;94611.66;4952928;28;20224;-84
2021/06/29 10:39:35;;;;;;;5.75;5.32;;;30.30;59.70;;;30.95;40.66;94602.00;4843281;29;20246;-85
2021/06/29 10:42:10;;;;;;;4.93;4.53;;;30.30;59.80;;;31.05;41.01;94600.03;4708242;30;20241;-85
2021/06/29 10:44:47;;;;;;;5.05;4.65;;;30.30;59.80;;;31.09;41.23;94606.41;5139007;27;20412;-85
2021/06/29 10:47:29;;;;;;;5.07;4.60;;;30.40;60.10;;;31.06;40.91;94605.13;5053337;28;20209;-84
2021/06/29 10:50:14;;;;;;;4.60;4.20;;;30.40;60.10;;;30.98;40.75;94603.25;5066589;28;20231;-85
2021/06/29 10:52:43;;;;;;;4.68;4.05;;;30.40;60.00;;;30.92;40.84;94607.28;5057939;28;20203;-85
2021/06/29 10:55:24;;;;;;;4.10;3.80;;;30.40;59.80;;;30.84;41.61;94597.34;4983418;28;20227;-86
2021/06/29 10:57:57;;;;;;;5.00;4.50;;;30.30;60.00;;;30.74;42.02;94596.59;4855582;29;20208;-84
2021/06/29 11:00:34;;;;;;;4.97;4.57;;;30.30;60.30;;;30.68;41.25;94602.53;4765320;29;20242;-85
2021/06/29 11:06:01;;;;;;;4.78;4.22;;;30.30;60.20;;;30.59;41.98;94592.56;5136495;27;20642;-84
2021/06/29 11:08:48;;;;;;;4.93;4.53;;;30.10;60.20;;;30.55;41.94;94586.19;5081240;28;20616;-84
2021/06/29 11:11:15;;;;;;;6.22;4.75;;;30.10;60.30;;;30.47;41.91;94593.22;5069532;28;20213;-84
2021/06/29 11:13:46;;;;;;;5.22;4.72;;;30.00;60.00;;;30.40;41.37;94592.94;5081009;28;20225;-84
2021/06/29 11:16:14;;;;;;;5.43;4.93;;;30.00;60.00;;;30.37;41.23;94595.50;4998546;28;20212;-84
2021/06/29 11:18:41;;;;;;;5.30;4.72;;;29.90;60.10;;;30.37;41.53;94584.69;4922831;28;20858;-84